Aeroporto :
LOGIN :

Iscrizione | Disclaimer

   EN    FR    IT 

 










Sommario :    VFR   VFR Marginale   IFR   IFR Intensivo   IFR Molto Intensivo
Visibilità : 
Base nubi : 
>= 8 km
>= 3000ft
5 / 8 km
1000 / 3000 ft
1500m / 5 km
500 / 1000 ft
800 / 1500m
200 / 500 ft
< 800m
< 200 ft
Simboli :   Temporali  Nebbia  Neve Forte  Precipitazioni Forti  Vento > 20 kt
SIGMETs :   Varie  Temporali  Ghiacco  Turbolenza  Onda orograficha  Ceneri Vulcaniche






- Altitudine del aeroporto : 124 ft
- Codice IATA : NHT


EGWU - RAF Northolt

ULTIMO METAR :
  • 220550Z 22007KT 9999 FEW016 12/10 Q1006 TEMPO -SHRA SCT014

METARs OBSOLETI :
  • 220450Z AUTO 23007KT 9999 // FEW017/// 12/10 Q1005
  • 220350Z AUTO 21008KT 9999 // BKN015/// 12/10 Q1005
  • 220250Z AUTO 22008KT 9999 // NCD 12/10 Q1004

TAF TAF EGWU
Valido dal 22 a 06 ore il 23 a 00 ore UTC


220457Z 2206/2224 22014KT 9999 FEW010
TEMPO 2206/2212 -SHRA SCT010
PROB30
TEMPO 2212/2218 -SHRA SCT020
PROB40
TEMPO 2218/2224 BKN020
PROB30
TEMPO 2221/2224 SCT010



MetMap, La meteo Aeronautica in un colpo d'occhio ! - Copyright ORBIFLY Dicembre 2007 - Disclaimer

ORBIFLY MET'MAP TEAM :

Programmazione e sviluppo : Alexandra Zaïnal
Concezione : Baudouin d'Aumeries
Aiuto per la programmazione : Marc-Olivier Méhu
Supporto tecnico e logistico : Manuel Goepfert
Aiuto per la traduzione : Arnaldo La Scala

Contatto : metmap@orbifly.com




FONTI E CREDITI :

   NOAA